Terminal Aerodrome Forecast
Issued by NWS

Current Version | Previous Version | Text Only | Print | Product List | Glossary Off
Versions: 1 2 3 4 5 6 7 8 9 10 11 12 13 14 15 16 17 18 19 20

000
FTUS41 KILN 302300 RRA
TAFLCK
TAF
KLCK 302342Z 0100/0124 35006KT P6SM SCT018
     FM010300 VRB03KT 5SM BR OVC012
      TEMPO 0108/0112 1SM BR OVC007
     FM011500 VRB03KT P6SM BKN012
     FM011700 VRB04KT P6SM BKN040=

USA.gov is the U.S. government's official web portal to all federal, state and local government web resources and services.